sensor_id;sensor_type;location;lat;lon;timestamp;P1;durP1;ratioP1;P2;durP2;ratioP2
25479;SDS011;13393;49.378;8.686;2022-09-09T00:00:39;4.28;;;1.58;;
25479;SDS011;13393;49.378;8.686;2022-09-09T00:03:07;6.35;;;1.55;;
25479;SDS011;13393;49.378;8.686;2022-09-09T00:05:41;3.03;;;1.10;;
25479;SDS011;13393;49.378;8.686;2022-09-09T00:08:12;4.32;;;1.10;;
25479;SDS011;13393;49.378;8.686;2022-09-09T00:10:41;3.08;;;0.98;;
25479;SDS011;13393;49.378;8.686;2022-09-09T00:13:11;3.95;;;1.10;;
25479;SDS011;13393;49.378;8.686;2022-09-09T00:15:42;4.40;;;1.52;;
25479;SDS011;13393;49.378;8.686;2022-09-09T00:18:13;7.10;;;1.25;;
25479;SDS011;13393;49.378;8.686;2022-09-09T00:20:44;2.60;;;1.30;;
25479;SDS011;13393;49.378;8.686;2022-09-09T00:23:14;2.75;;;1.20;;
25479;SDS011;13393;49.378;8.686;2022-09-09T00:25:46;3.38;;;1.27;;
25479;SDS011;13393;49.378;8.686;2022-09-09T00:28:17;3.28;;;1.17;;
25479;SDS011;13393;49.378;8.686;2022-09-09T00:30:44;3.58;;;1.10;;
25479;SDS011;13393;49.378;8.686;2022-09-09T00:33:13;6.20;;;1.33;;
25479;SDS011;13393;49.378;8.686;2022-09-09T00:35:42;4.35;;;1.52;;
25479;SDS011;13393;49.378;8.686;2022-09-09T00:38:12;4.10;;;1.75;;
25479;SDS011;13393;49.378;8.686;2022-09-09T00:40:41;7.78;;;1.55;;
25479;SDS011;13393;49.378;8.686;2022-09-09T00:43:15;6.20;;;1.33;;
25479;SDS011;13393;49.378;8.686;2022-09-09T00:45:52;3.97;;;1.13;;
25479;SDS011;13393;49.378;8.686;2022-09-09T00:48:20;4.82;;;1.10;;
25479;SDS011;13393;49.378;8.686;2022-09-09T00:50:49;3.15;;;1.13;;
25479;SDS011;13393;49.378;8.686;2022-09-09T00:53:24;3.38;;;1.20;;
25479;SDS011;13393;49.378;8.686;2022-09-09T00:58:21;2.42;;;1.30;;
25479;SDS011;13393;49.378;8.686;2022-09-09T01:00:49;4.07;;;1.20;;
25479;SDS011;13393;49.378;8.686;2022-09-09T01:03:21;4.00;;;1.27;;
25479;SDS011;13393;49.378;8.686;2022-09-09T01:05:49;2.42;;;1.30;;
25479;SDS011;13393;49.378;8.686;2022-09-09T01:08:28;2.50;;;1.00;;
25479;SDS011;13393;49.378;8.686;2022-09-09T01:10:58;4.95;;;1.17;;
25479;SDS011;13393;49.378;8.686;2022-09-09T01:13:28;2.38;;;0.95;;
25479;SDS011;13393;49.378;8.686;2022-09-09T01:15:56;2.53;;;1.30;;
25479;SDS011;13393;49.378;8.686;2022-09-09T01:18:23;3.25;;;1.10;;
25479;SDS011;13393;49.378;8.686;2022-09-09T01:20:55;4.13;;;1.40;;
25479;SDS011;13393;49.378;8.686;2022-09-09T01:23:41;3.78;;;1.30;;
25479;SDS011;13393;49.378;8.686;2022-09-09T01:26:19;3.88;;;1.20;;
25479;SDS011;13393;49.378;8.686;2022-09-09T01:28:48;3.13;;;1.15;;
25479;SDS011;13393;49.378;8.686;2022-09-09T01:31:18;4.72;;;1.48;;
25479;SDS011;13393;49.378;8.686;2022-09-09T01:33:45;4.88;;;1.77;;
25479;SDS011;13393;49.378;8.686;2022-09-09T01:36:12;4.38;;;1.70;;
25479;SDS011;13393;49.378;8.686;2022-09-09T01:38:41;3.60;;;1.40;;
25479;SDS011;13393;49.378;8.686;2022-09-09T01:41:07;4.25;;;1.45;;
25479;SDS011;13393;49.378;8.686;2022-09-09T01:43:35;7.38;;;1.63;;
25479;SDS011;13393;49.378;8.686;2022-09-09T01:46:01;3.15;;;1.35;;
25479;SDS011;13393;49.378;8.686;2022-09-09T01:48:28;5.97;;;1.38;;
25479;SDS011;13393;49.378;8.686;2022-09-09T01:50:55;2.47;;;1.20;;
25479;SDS011;13393;49.378;8.686;2022-09-09T01:53:22;4.72;;;1.60;;
25479;SDS011;13393;49.378;8.686;2022-09-09T01:55:49;3.67;;;1.50;;
25479;SDS011;13393;49.378;8.686;2022-09-09T01:58:22;2.00;;;1.35;;
25479;SDS011;13393;49.378;8.686;2022-09-09T02:00:56;7.38;;;1.67;;
25479;SDS011;13393;49.378;8.686;2022-09-09T02:03:27;2.88;;;1.48;;
25479;SDS011;13393;49.378;8.686;2022-09-09T02:05:55;6.47;;;1.50;;
25479;SDS011;13393;49.378;8.686;2022-09-09T02:08:26;3.15;;;1.25;;
25479;SDS011;13393;49.378;8.686;2022-09-09T02:10:55;8.02;;;1.95;;
25479;SDS011;13393;49.378;8.686;2022-09-09T02:13:22;5.38;;;1.40;;
25479;SDS011;13393;49.378;8.686;2022-09-09T02:15:51;3.42;;;1.58;;
25479;SDS011;13393;49.378;8.686;2022-09-09T02:18:21;4.68;;;1.75;;
25479;SDS011;13393;49.378;8.686;2022-09-09T02:20:49;4.13;;;1.50;;
25479;SDS011;13393;49.378;8.686;2022-09-09T02:23:16;3.47;;;1.40;;
25479;SDS011;13393;49.378;8.686;2022-09-09T02:25:43;7.32;;;1.67;;
25479;SDS011;13393;49.378;8.686;2022-09-09T02:28:11;5.10;;;1.63;;
25479;SDS011;13393;49.378;8.686;2022-09-09T02:30:39;4.95;;;1.40;;
25479;SDS011;13393;49.378;8.686;2022-09-09T02:33:06;6.90;;;1.63;;
25479;SDS011;13393;49.378;8.686;2022-09-09T02:35:36;3.65;;;1.60;;
25479;SDS011;13393;49.378;8.686;2022-09-09T02:38:04;6.55;;;1.77;;
25479;SDS011;13393;49.378;8.686;2022-09-09T02:40:32;4.00;;;1.85;;
25479;SDS011;13393;49.378;8.686;2022-09-09T02:42:58;4.85;;;1.38;;
25479;SDS011;13393;49.378;8.686;2022-09-09T02:45:25;3.55;;;1.40;;
25479;SDS011;13393;49.378;8.686;2022-09-09T02:47:55;3.90;;;1.30;;
25479;SDS011;13393;49.378;8.686;2022-09-09T02:50:25;2.60;;;1.30;;
25479;SDS011;13393;49.378;8.686;2022-09-09T02:53:00;3.65;;;1.73;;
25479;SDS011;13393;49.378;8.686;2022-09-09T02:55:30;5.57;;;1.50;;
25479;SDS011;13393;49.378;8.686;2022-09-09T02:57:59;3.20;;;1.40;;
25479;SDS011;13393;49.378;8.686;2022-09-09T03:00:26;4.18;;;1.50;;
25479;SDS011;13393;49.378;8.686;2022-09-09T03:02:53;3.85;;;1.35;;
25479;SDS011;13393;49.378;8.686;2022-09-09T03:05:20;3.70;;;1.35;;
25479;SDS011;13393;49.378;8.686;2022-09-09T03:07:46;3.20;;;1.38;;
25479;SDS011;13393;49.378;8.686;2022-09-09T03:10:14;3.05;;;1.60;;
25479;SDS011;13393;49.378;8.686;2022-09-09T03:12:40;2.97;;;1.23;;
25479;SDS011;13393;49.378;8.686;2022-09-09T03:15:07;5.85;;;1.25;;
25479;SDS011;13393;49.378;8.686;2022-09-09T03:17:34;5.18;;;1.70;;
25479;SDS011;13393;49.378;8.686;2022-09-09T03:20:01;2.83;;;0.95;;
25479;SDS011;13393;49.378;8.686;2022-09-09T03:22:28;6.97;;;1.17;;
25479;SDS011;13393;49.378;8.686;2022-09-09T03:24:54;2.13;;;0.93;;
25479;SDS011;13393;49.378;8.686;2022-09-09T03:27:22;3.00;;;1.20;;
25479;SDS011;13393;49.378;8.686;2022-09-09T03:29:48;2.63;;;1.05;;
25479;SDS011;13393;49.378;8.686;2022-09-09T03:32:16;2.13;;;1.20;;
25479;SDS011;13393;49.378;8.686;2022-09-09T03:34:42;4.18;;;0.88;;
25479;SDS011;13393;49.378;8.686;2022-09-09T03:37:08;2.95;;;0.80;;
25479;SDS011;13393;49.378;8.686;2022-09-09T03:39:35;3.15;;;0.88;;
25479;SDS011;13393;49.378;8.686;2022-09-09T03:42:01;4.13;;;0.93;;
25479;SDS011;13393;49.378;8.686;2022-09-09T03:44:30;3.22;;;1.10;;
25479;SDS011;13393;49.378;8.686;2022-09-09T03:46:57;2.78;;;1.08;;
25479;SDS011;13393;49.378;8.686;2022-09-09T03:49:25;2.95;;;1.10;;
25479;SDS011;13393;49.378;8.686;2022-09-09T03:51:53;2.15;;;0.80;;
25479;SDS011;13393;49.378;8.686;2022-09-09T03:54:19;3.05;;;1.08;;
25479;SDS011;13393;49.378;8.686;2022-09-09T03:56:46;3.78;;;1.00;;
25479;SDS011;13393;49.378;8.686;2022-09-09T03:59:12;2.45;;;0.80;;
25479;SDS011;13393;49.378;8.686;2022-09-09T04:01:40;2.63;;;0.80;;
25479;SDS011;13393;49.378;8.686;2022-09-09T04:04:07;1.58;;;0.80;;
25479;SDS011;13393;49.378;8.686;2022-09-09T04:06:34;4.05;;;0.80;;
25479;SDS011;13393;49.378;8.686;2022-09-09T04:09:00;1.20;;;0.70;;
25479;SDS011;13393;49.378;8.686;2022-09-09T04:11:28;4.53;;;0.95;;
25479;SDS011;13393;49.378;8.686;2022-09-09T04:13:54;1.10;;;0.60;;
25479;SDS011;13393;49.378;8.686;2022-09-09T04:16:20;3.95;;;1.02;;
25479;SDS011;13393;49.378;8.686;2022-09-09T04:18:48;2.17;;;1.20;;
25479;SDS011;13393;49.378;8.686;2022-09-09T04:21:15;3.05;;;0.90;;
25479;SDS011;13393;49.378;8.686;2022-09-09T04:23:42;3.50;;;0.90;;
25479;SDS011;13393;49.378;8.686;2022-09-09T04:26:08;3.08;;;1.10;;
25479;SDS011;13393;49.378;8.686;2022-09-09T04:28:35;2.28;;;0.98;;
25479;SDS011;13393;49.378;8.686;2022-09-09T04:31:05;1.13;;;0.60;;
25479;SDS011;13393;49.378;8.686;2022-09-09T04:33:32;2.53;;;0.90;;
25479;SDS011;13393;49.378;8.686;2022-09-09T04:35:59;2.92;;;1.02;;
25479;SDS011;13393;49.378;8.686;2022-09-09T04:38:26;3.13;;;0.88;;
25479;SDS011;13393;49.378;8.686;2022-09-09T04:40:52;5.43;;;1.02;;
25479;SDS011;13393;49.378;8.686;2022-09-09T04:43:19;3.00;;;1.13;;
25479;SDS011;13393;49.378;8.686;2022-09-09T04:45:46;2.78;;;0.82;;
25479;SDS011;13393;49.378;8.686;2022-09-09T04:48:13;1.13;;;0.70;;
25479;SDS011;13393;49.378;8.686;2022-09-09T04:50:40;3.65;;;0.70;;
25479;SDS011;13393;49.378;8.686;2022-09-09T04:53:08;2.72;;;1.00;;
25479;SDS011;13393;49.378;8.686;2022-09-09T04:55:34;3.33;;;0.80;;
25479;SDS011;13393;49.378;8.686;2022-09-09T04:58:02;3.03;;;0.98;;
25479;SDS011;13393;49.378;8.686;2022-09-09T05:00:29;2.58;;;0.80;;
25479;SDS011;13393;49.378;8.686;2022-09-09T05:02:55;2.85;;;0.80;;
25479;SDS011;13393;49.378;8.686;2022-09-09T05:05:22;1.98;;;0.88;;
25479;SDS011;13393;49.378;8.686;2022-09-09T05:07:48;1.95;;;1.00;;
25479;SDS011;13393;49.378;8.686;2022-09-09T05:10:16;1.20;;;0.80;;
25479;SDS011;13393;49.378;8.686;2022-09-09T05:12:43;0.98;;;0.80;;
25479;SDS011;13393;49.378;8.686;2022-09-09T05:15:09;1.60;;;0.73;;
25479;SDS011;13393;49.378;8.686;2022-09-09T05:17:36;3.13;;;1.00;;
25479;SDS011;13393;49.378;8.686;2022-09-09T05:20:03;3.97;;;0.80;;
25479;SDS011;13393;49.378;8.686;2022-09-09T05:22:30;3.22;;;1.10;;
25479;SDS011;13393;49.378;8.686;2022-09-09T05:24:56;2.88;;;0.80;;
25479;SDS011;13393;49.378;8.686;2022-09-09T05:27:24;5.28;;;0.90;;
25479;SDS011;13393;49.378;8.686;2022-09-09T05:29:51;2.47;;;0.75;;
25479;SDS011;13393;49.378;8.686;2022-09-09T05:32:17;3.35;;;0.90;;
25479;SDS011;13393;49.378;8.686;2022-09-09T05:34:44;6.05;;;1.08;;
25479;SDS011;13393;49.378;8.686;2022-09-09T05:37:11;3.65;;;0.90;;
25479;SDS011;13393;49.378;8.686;2022-09-09T05:39:38;2.20;;;0.80;;
25479;SDS011;13393;49.378;8.686;2022-09-09T05:42:04;3.17;;;0.85;;
25479;SDS011;13393;49.378;8.686;2022-09-09T05:44:32;3.17;;;1.05;;
25479;SDS011;13393;49.378;8.686;2022-09-09T05:46:58;2.10;;;0.95;;
25479;SDS011;13393;49.378;8.686;2022-09-09T05:49:25;5.05;;;0.93;;
25479;SDS011;13393;49.378;8.686;2022-09-09T05:51:51;2.65;;;1.20;;
25479;SDS011;13393;49.378;8.686;2022-09-09T05:54:18;2.60;;;1.10;;
25479;SDS011;13393;49.378;8.686;2022-09-09T05:56:44;1.13;;;0.80;;
25479;SDS011;13393;49.378;8.686;2022-09-09T05:59:11;3.95;;;0.90;;
25479;SDS011;13393;49.378;8.686;2022-09-09T06:01:39;1.88;;;0.98;;
25479;SDS011;13393;49.378;8.686;2022-09-09T06:04:06;2.70;;;0.88;;
25479;SDS011;13393;49.378;8.686;2022-09-09T06:06:34;3.13;;;1.10;;
25479;SDS011;13393;49.378;8.686;2022-09-09T06:09:02;4.72;;;1.33;;
25479;SDS011;13393;49.378;8.686;2022-09-09T06:11:29;1.98;;;0.90;;
25479;SDS011;13393;49.378;8.686;2022-09-09T06:13:56;1.23;;;0.90;;
25479;SDS011;13393;49.378;8.686;2022-09-09T06:16:23;3.53;;;1.10;;
25479;SDS011;13393;49.378;8.686;2022-09-09T06:18:51;1.45;;;0.90;;
25479;SDS011;13393;49.378;8.686;2022-09-09T06:21:19;7.32;;;1.13;;
25479;SDS011;13393;49.378;8.686;2022-09-09T06:23:46;5.32;;;1.17;;
25479;SDS011;13393;49.378;8.686;2022-09-09T06:26:13;3.63;;;1.60;;
25479;SDS011;13393;49.378;8.686;2022-09-09T06:28:39;1.92;;;1.10;;
25479;SDS011;13393;49.378;8.686;2022-09-09T06:31:08;3.03;;;1.17;;
25479;SDS011;13393;49.378;8.686;2022-09-09T06:33:36;5.35;;;1.00;;
25479;SDS011;13393;49.378;8.686;2022-09-09T06:36:07;3.60;;;1.10;;
25479;SDS011;13393;49.378;8.686;2022-09-09T06:38:36;1.55;;;1.02;;
25479;SDS011;13393;49.378;8.686;2022-09-09T06:41:02;4.25;;;0.90;;
25479;SDS011;13393;49.378;8.686;2022-09-09T06:43:30;3.25;;;1.10;;
25479;SDS011;13393;49.378;8.686;2022-09-09T06:45:57;4.50;;;1.10;;
25479;SDS011;13393;49.378;8.686;2022-09-09T06:48:24;3.20;;;1.15;;
25479;SDS011;13393;49.378;8.686;2022-09-09T06:50:59;3.15;;;0.90;;
25479;SDS011;13393;49.378;8.686;2022-09-09T06:53:27;3.00;;;1.10;;
25479;SDS011;13393;49.378;8.686;2022-09-09T06:55:54;2.67;;;1.00;;
25479;SDS011;13393;49.378;8.686;2022-09-09T06:58:20;3.67;;;1.20;;
25479;SDS011;13393;49.378;8.686;2022-09-09T07:00:48;5.53;;;0.95;;
25479;SDS011;13393;49.378;8.686;2022-09-09T07:03:14;4.53;;;1.35;;
25479;SDS011;13393;49.378;8.686;2022-09-09T07:05:41;2.80;;;1.00;;
25479;SDS011;13393;49.378;8.686;2022-09-09T07:08:09;2.08;;;1.17;;
25479;SDS011;13393;49.378;8.686;2022-09-09T07:10:38;4.57;;;1.10;;
25479;SDS011;13393;49.378;8.686;2022-09-09T07:13:04;4.50;;;0.98;;
25479;SDS011;13393;49.378;8.686;2022-09-09T07:15:31;9.93;;;1.52;;
25479;SDS011;13393;49.378;8.686;2022-09-09T07:18:00;3.70;;;1.15;;
25479;SDS011;13393;49.378;8.686;2022-09-09T07:20:26;3.97;;;1.30;;
25479;SDS011;13393;49.378;8.686;2022-09-09T07:22:54;5.50;;;1.63;;
25479;SDS011;13393;49.378;8.686;2022-09-09T07:25:20;6.90;;;1.13;;
25479;SDS011;13393;49.378;8.686;2022-09-09T07:27:48;7.03;;;1.25;;
25479;SDS011;13393;49.378;8.686;2022-09-09T07:30:14;4.22;;;1.27;;
25479;SDS011;13393;49.378;8.686;2022-09-09T07:32:41;5.10;;;1.17;;
25479;SDS011;13393;49.378;8.686;2022-09-09T07:35:08;3.58;;;1.30;;
25479;SDS011;13393;49.378;8.686;2022-09-09T07:37:35;5.68;;;1.33;;
25479;SDS011;13393;49.378;8.686;2022-09-09T07:40:02;4.28;;;1.30;;
25479;SDS011;13393;49.378;8.686;2022-09-09T07:42:30;10.38;;;1.45;;
25479;SDS011;13393;49.378;8.686;2022-09-09T07:44:58;7.72;;;1.73;;
25479;SDS011;13393;49.378;8.686;2022-09-09T07:47:27;3.40;;;1.25;;
25479;SDS011;13393;49.378;8.686;2022-09-09T07:49:53;5.60;;;1.30;;
25479;SDS011;13393;49.378;8.686;2022-09-09T07:52:21;5.78;;;1.48;;
25479;SDS011;13393;49.378;8.686;2022-09-09T07:54:47;5.25;;;1.35;;
25479;SDS011;13393;49.378;8.686;2022-09-09T07:57:13;7.97;;;1.60;;
25479;SDS011;13393;49.378;8.686;2022-09-09T07:59:40;8.50;;;1.25;;
25479;SDS011;13393;49.378;8.686;2022-09-09T08:02:09;6.13;;;1.52;;
25479;SDS011;13393;49.378;8.686;2022-09-09T08:04:36;5.28;;;1.52;;
25479;SDS011;13393;49.378;8.686;2022-09-09T08:07:02;5.28;;;1.33;;
25479;SDS011;13393;49.378;8.686;2022-09-09T08:09:29;3.80;;;1.10;;
25479;SDS011;13393;49.378;8.686;2022-09-09T08:11:57;4.28;;;1.20;;
25479;SDS011;13393;49.378;8.686;2022-09-09T08:14:23;5.50;;;1.77;;
25479;SDS011;13393;49.378;8.686;2022-09-09T08:16:50;4.95;;;1.67;;
25479;SDS011;13393;49.378;8.686;2022-09-09T08:19:19;3.72;;;0.93;;
25479;SDS011;13393;49.378;8.686;2022-09-09T08:21:45;7.07;;;1.45;;
25479;SDS011;13393;49.378;8.686;2022-09-09T08:24:14;4.13;;;1.20;;
25479;SDS011;13393;49.378;8.686;2022-09-09T08:26:41;7.38;;;1.90;;
25479;SDS011;13393;49.378;8.686;2022-09-09T08:29:08;6.00;;;1.17;;
25479;SDS011;13393;49.378;8.686;2022-09-09T08:31:35;4.25;;;1.10;;
25479;SDS011;13393;49.378;8.686;2022-09-09T08:34:02;6.03;;;1.48;;
25479;SDS011;13393;49.378;8.686;2022-09-09T08:36:32;6.15;;;1.42;;
25479;SDS011;13393;49.378;8.686;2022-09-09T08:38:59;6.63;;;1.50;;
25479;SDS011;13393;49.378;8.686;2022-09-09T08:41:36;6.35;;;1.38;;
25479;SDS011;13393;49.378;8.686;2022-09-09T08:44:06;5.25;;;1.23;;
25479;SDS011;13393;49.378;8.686;2022-09-09T08:46:35;4.43;;;1.40;;
25479;SDS011;13393;49.378;8.686;2022-09-09T08:49:06;6.38;;;1.30;;
25479;SDS011;13393;49.378;8.686;2022-09-09T08:51:37;6.40;;;1.40;;
25479;SDS011;13393;49.378;8.686;2022-09-09T08:54:04;6.63;;;1.80;;
25479;SDS011;13393;49.378;8.686;2022-09-09T08:56:31;6.47;;;1.63;;
25479;SDS011;13393;49.378;8.686;2022-09-09T08:58:59;6.65;;;2.03;;
25479;SDS011;13393;49.378;8.686;2022-09-09T09:01:34;5.78;;;1.50;;
25479;SDS011;13393;49.378;8.686;2022-09-09T09:04:03;6.25;;;1.42;;
25479;SDS011;13393;49.378;8.686;2022-09-09T09:06:36;2.75;;;1.08;;
25479;SDS011;13393;49.378;8.686;2022-09-09T09:09:08;6.13;;;1.33;;
25479;SDS011;13393;49.378;8.686;2022-09-09T09:11:39;4.13;;;1.25;;
25479;SDS011;13393;49.378;8.686;2022-09-09T09:14:08;3.65;;;1.20;;
25479;SDS011;13393;49.378;8.686;2022-09-09T09:16:38;3.00;;;1.10;;
25479;SDS011;13393;49.378;8.686;2022-09-09T09:19:05;2.42;;;0.93;;
25479;SDS011;13393;49.378;8.686;2022-09-09T09:21:36;3.78;;;1.23;;
25479;SDS011;13393;49.378;8.686;2022-09-09T09:24:04;1.60;;;1.00;;
25479;SDS011;13393;49.378;8.686;2022-09-09T09:26:35;4.90;;;1.30;;
25479;SDS011;13393;49.378;8.686;2022-09-09T09:29:03;4.10;;;0.95;;
25479;SDS011;13393;49.378;8.686;2022-09-09T09:31:35;4.85;;;1.10;;
25479;SDS011;13393;49.378;8.686;2022-09-09T09:34:01;4.40;;;1.40;;
25479;SDS011;13393;49.378;8.686;2022-09-09T09:36:33;3.75;;;1.10;;
25479;SDS011;13393;49.378;8.686;2022-09-09T09:39:00;4.95;;;1.35;;
25479;SDS011;13393;49.378;8.686;2022-09-09T09:41:31;4.97;;;1.40;;
25479;SDS011;13393;49.378;8.686;2022-09-09T09:43:59;2.70;;;1.20;;
25479;SDS011;13393;49.378;8.686;2022-09-09T09:46:27;3.83;;;1.42;;
25479;SDS011;13393;49.378;8.686;2022-09-09T09:48:56;6.80;;;2.10;;
25479;SDS011;13393;49.378;8.686;2022-09-09T09:51:23;3.47;;;1.35;;
25479;SDS011;13393;49.378;8.686;2022-09-09T09:53:50;4.78;;;1.25;;
25479;SDS011;13393;49.378;8.686;2022-09-09T09:56:17;4.32;;;1.27;;
25479;SDS011;13393;49.378;8.686;2022-09-09T09:58:52;7.47;;;1.60;;
25479;SDS011;13393;49.378;8.686;2022-09-09T10:01:22;9.20;;;1.45;;
25479;SDS011;13393;49.378;8.686;2022-09-09T10:03:50;10.52;;;2.10;;
25479;SDS011;13393;49.378;8.686;2022-09-09T10:06:16;7.13;;;1.58;;
25479;SDS011;13393;49.378;8.686;2022-09-09T10:08:44;7.47;;;1.52;;
25479;SDS011;13393;49.378;8.686;2022-09-09T10:11:24;6.60;;;1.40;;
25479;SDS011;13393;49.378;8.686;2022-09-09T10:13:54;7.07;;;1.85;;
25479;SDS011;13393;49.378;8.686;2022-09-09T10:16:30;4.95;;;1.75;;
25479;SDS011;13393;49.378;8.686;2022-09-09T10:19:02;4.38;;;1.33;;
25479;SDS011;13393;49.378;8.686;2022-09-09T10:21:38;8.10;;;1.90;;
25479;SDS011;13393;49.378;8.686;2022-09-09T10:24:16;5.88;;;1.20;;
25479;SDS011;13393;49.378;8.686;2022-09-09T10:26:49;3.20;;;1.13;;
25479;SDS011;13393;49.378;8.686;2022-09-09T10:29:32;7.45;;;1.38;;
25479;SDS011;13393;49.378;8.686;2022-09-09T10:32:08;2.88;;;1.40;;
25479;SDS011;13393;49.378;8.686;2022-09-09T10:34:51;5.43;;;1.48;;
25479;SDS011;13393;49.378;8.686;2022-09-09T10:37:22;2.90;;;1.17;;
25479;SDS011;13393;49.378;8.686;2022-09-09T10:39:54;4.38;;;1.40;;
25479;SDS011;13393;49.378;8.686;2022-09-09T10:42:26;2.90;;;1.02;;
25479;SDS011;13393;49.378;8.686;2022-09-09T10:44:57;3.33;;;1.25;;
25479;SDS011;13393;49.378;8.686;2022-09-09T10:47:35;3.83;;;1.42;;
25479;SDS011;13393;49.378;8.686;2022-09-09T10:50:18;2.97;;;1.00;;
25479;SDS011;13393;49.378;8.686;2022-09-09T10:55:18;3.65;;;1.10;;
25479;SDS011;13393;49.378;8.686;2022-09-09T10:57:45;1.70;;;0.90;;
25479;SDS011;13393;49.378;8.686;2022-09-09T11:00:15;2.25;;;0.88;;
25479;SDS011;13393;49.378;8.686;2022-09-09T11:02:44;2.38;;;0.90;;
25479;SDS011;13393;49.378;8.686;2022-09-09T11:05:14;2.72;;;0.98;;
25479;SDS011;13393;49.378;8.686;2022-09-09T11:07:42;2.45;;;1.05;;
25479;SDS011;13393;49.378;8.686;2022-09-09T11:10:15;3.97;;;1.00;;
25479;SDS011;13393;49.378;8.686;2022-09-09T11:12:43;4.75;;;1.20;;
25479;SDS011;13393;49.378;8.686;2022-09-09T11:15:14;3.92;;;1.10;;
25479;SDS011;13393;49.378;8.686;2022-09-09T11:17:44;4.10;;;1.27;;
25479;SDS011;13393;49.378;8.686;2022-09-09T11:20:12;3.70;;;1.50;;
25479;SDS011;13393;49.378;8.686;2022-09-09T11:22:39;3.33;;;1.30;;
25479;SDS011;13393;49.378;8.686;2022-09-09T11:25:10;8.32;;;1.55;;
25479;SDS011;13393;49.378;8.686;2022-09-09T11:27:42;3.42;;;1.48;;
25479;SDS011;13393;49.378;8.686;2022-09-09T11:30:17;3.70;;;1.00;;
25479;SDS011;13393;49.378;8.686;2022-09-09T11:35:18;4.55;;;1.33;;
25479;SDS011;13393;49.378;8.686;2022-09-09T11:37:55;4.63;;;1.05;;
25479;SDS011;13393;49.378;8.686;2022-09-09T11:40:25;5.95;;;1.38;;
25479;SDS011;13393;49.378;8.686;2022-09-09T11:43:03;6.57;;;1.10;;
25479;SDS011;13393;49.378;8.686;2022-09-09T11:45:31;7.05;;;1.92;;
25479;SDS011;13393;49.378;8.686;2022-09-09T11:47:59;5.47;;;1.23;;
25479;SDS011;13393;49.378;8.686;2022-09-09T11:50:31;4.93;;;1.20;;
25479;SDS011;13393;49.378;8.686;2022-09-09T11:55:47;6.38;;;1.42;;
25479;SDS011;13393;49.378;8.686;2022-09-09T11:58:15;6.43;;;1.20;;
25479;SDS011;13393;49.378;8.686;2022-09-09T12:00:43;3.60;;;1.10;;
25479;SDS011;13393;49.378;8.686;2022-09-09T12:03:28;5.07;;;1.25;;
25479;SDS011;13393;49.378;8.686;2022-09-09T12:05:58;2.15;;;0.85;;
25479;SDS011;13393;49.378;8.686;2022-09-09T12:08:26;3.70;;;1.08;;
25479;SDS011;13393;49.378;8.686;2022-09-09T12:10:53;3.55;;;1.10;;
25479;SDS011;13393;49.378;8.686;2022-09-09T12:13:21;5.38;;;1.38;;
25479;SDS011;13393;49.378;8.686;2022-09-09T12:15:49;3.65;;;1.00;;
25479;SDS011;13393;49.378;8.686;2022-09-09T12:18:16;6.63;;;1.17;;
25479;SDS011;13393;49.378;8.686;2022-09-09T12:20:51;3.90;;;0.95;;
25479;SDS011;13393;49.378;8.686;2022-09-09T12:23:24;3.80;;;1.17;;
25479;SDS011;13393;49.378;8.686;2022-09-09T12:26:03;3.38;;;1.10;;
25479;SDS011;13393;49.378;8.686;2022-09-09T12:28:44;2.65;;;1.00;;
25479;SDS011;13393;49.378;8.686;2022-09-09T12:31:14;5.78;;;1.30;;
25479;SDS011;13393;49.378;8.686;2022-09-09T12:33:43;3.97;;;1.10;;
25479;SDS011;13393;49.378;8.686;2022-09-09T12:36:11;5.50;;;1.33;;
25479;SDS011;13393;49.378;8.686;2022-09-09T12:38:40;2.97;;;0.98;;
25479;SDS011;13393;49.378;8.686;2022-09-09T12:41:15;4.22;;;1.20;;
25479;SDS011;13393;49.378;8.686;2022-09-09T12:43:44;5.60;;;1.10;;
25479;SDS011;13393;49.378;8.686;2022-09-09T12:46:14;5.13;;;1.38;;
25479;SDS011;13393;49.378;8.686;2022-09-09T12:48:46;3.92;;;1.10;;
25479;SDS011;13393;49.378;8.686;2022-09-09T12:51:16;6.60;;;1.60;;
25479;SDS011;13393;49.378;8.686;2022-09-09T12:53:45;5.45;;;1.10;;
25479;SDS011;13393;49.378;8.686;2022-09-09T12:56:17;3.08;;;1.30;;
25479;SDS011;13393;49.378;8.686;2022-09-09T12:58:45;3.10;;;1.15;;
25479;SDS011;13393;49.378;8.686;2022-09-09T13:01:18;6.22;;;1.48;;
25479;SDS011;13393;49.378;8.686;2022-09-09T13:03:45;4.40;;;1.33;;
25479;SDS011;13393;49.378;8.686;2022-09-09T13:06:13;4.30;;;1.20;;
25479;SDS011;13393;49.378;8.686;2022-09-09T13:08:40;3.80;;;0.95;;
25479;SDS011;13393;49.378;8.686;2022-09-09T13:11:10;4.90;;;1.30;;
25479;SDS011;13393;49.378;8.686;2022-09-09T13:13:39;8.18;;;1.33;;
25479;SDS011;13393;49.378;8.686;2022-09-09T13:16:06;3.90;;;1.08;;
25479;SDS011;13393;49.378;8.686;2022-09-09T13:18:35;4.05;;;1.40;;
25479;SDS011;13393;49.378;8.686;2022-09-09T13:21:03;2.78;;;0.95;;
25479;SDS011;13393;49.378;8.686;2022-09-09T13:23:30;4.10;;;1.05;;
25479;SDS011;13393;49.378;8.686;2022-09-09T13:25:57;3.78;;;0.95;;
25479;SDS011;13393;49.378;8.686;2022-09-09T13:28:26;3.15;;;1.10;;
25479;SDS011;13393;49.378;8.686;2022-09-09T13:30:56;8.45;;;0.93;;
25479;SDS011;13393;49.378;8.686;2022-09-09T13:33:28;4.22;;;0.63;;
25479;SDS011;13393;49.378;8.686;2022-09-09T13:35:55;2.20;;;0.50;;
25479;SDS011;13393;49.378;8.686;2022-09-09T13:38:22;1.48;;;0.60;;
25479;SDS011;13393;49.378;8.686;2022-09-09T13:40:56;3.72;;;0.70;;
25479;SDS011;13393;49.378;8.686;2022-09-09T13:43:28;2.03;;;0.75;;
25479;SDS011;13393;49.378;8.686;2022-09-09T13:45:56;2.25;;;0.75;;
25479;SDS011;13393;49.378;8.686;2022-09-09T13:48:23;1.55;;;0.82;;
25479;SDS011;13393;49.378;8.686;2022-09-09T13:50:54;3.00;;;0.80;;
25479;SDS011;13393;49.378;8.686;2022-09-09T13:53:21;2.60;;;0.82;;
25479;SDS011;13393;49.378;8.686;2022-09-09T13:55:47;3.55;;;0.70;;
25479;SDS011;13393;49.378;8.686;2022-09-09T13:58:14;2.45;;;1.00;;
25479;SDS011;13393;49.378;8.686;2022-09-09T14:00:44;2.35;;;0.85;;
25479;SDS011;13393;49.378;8.686;2022-09-09T14:03:11;1.55;;;0.82;;
25479;SDS011;13393;49.378;8.686;2022-09-09T14:05:38;1.35;;;0.52;;
25479;SDS011;13393;49.378;8.686;2022-09-09T14:08:05;1.92;;;0.73;;
25479;SDS011;13393;49.378;8.686;2022-09-09T14:10:32;1.60;;;0.80;;
25479;SDS011;13393;49.378;8.686;2022-09-09T14:13:00;2.17;;;0.68;;
25479;SDS011;13393;49.378;8.686;2022-09-09T14:15:27;2.33;;;0.90;;
25479;SDS011;13393;49.378;8.686;2022-09-09T14:17:55;1.30;;;0.55;;
25479;SDS011;13393;49.378;8.686;2022-09-09T14:20:21;4.22;;;0.60;;
25479;SDS011;13393;49.378;8.686;2022-09-09T14:22:47;1.25;;;0.70;;
25479;SDS011;13393;49.378;8.686;2022-09-09T14:25:14;1.20;;;0.57;;
25479;SDS011;13393;49.378;8.686;2022-09-09T14:27:40;1.50;;;0.70;;
25479;SDS011;13393;49.378;8.686;2022-09-09T14:30:07;1.92;;;0.70;;
25479;SDS011;13393;49.378;8.686;2022-09-09T14:32:34;4.28;;;0.90;;
25479;SDS011;13393;49.378;8.686;2022-09-09T14:35:02;2.20;;;0.75;;
25479;SDS011;13393;49.378;8.686;2022-09-09T14:37:29;1.92;;;0.90;;
25479;SDS011;13393;49.378;8.686;2022-09-09T14:39:56;3.60;;;0.80;;
25479;SDS011;13393;49.378;8.686;2022-09-09T14:42:22;4.50;;;0.90;;
25479;SDS011;13393;49.378;8.686;2022-09-09T14:44:49;2.78;;;1.00;;
25479;SDS011;13393;49.378;8.686;2022-09-09T14:47:15;2.90;;;0.80;;
25479;SDS011;13393;49.378;8.686;2022-09-09T14:49:41;4.45;;;1.00;;
25479;SDS011;13393;49.378;8.686;2022-09-09T14:52:09;2.03;;;0.70;;
25479;SDS011;13393;49.378;8.686;2022-09-09T14:54:36;2.80;;;0.75;;
25479;SDS011;13393;49.378;8.686;2022-09-09T14:57:02;1.60;;;0.80;;
25479;SDS011;13393;49.378;8.686;2022-09-09T14:59:29;4.85;;;1.00;;
25479;SDS011;13393;49.378;8.686;2022-09-09T15:01:55;2.35;;;0.98;;
25479;SDS011;13393;49.378;8.686;2022-09-09T15:04:22;2.78;;;0.95;;
25479;SDS011;13393;49.378;8.686;2022-09-09T15:06:49;2.60;;;1.05;;